createdAt,value
2017-12-02T00:00:38.069Z,19.67
2017-12-02T00:03:07.173Z,18.83
2017-12-02T00:05:35.455Z,19.20
2017-12-02T00:08:03.727Z,20.30
2017-12-02T00:10:32.841Z,21.17
2017-12-02T00:13:01.914Z,21.70
2017-12-02T00:15:30.199Z,19.70
2017-12-02T00:24:57.941Z,21.53
2017-12-02T00:27:59.362Z,19.60
2017-12-02T00:37:00.946Z,21.77
2017-12-02T00:48:34.820Z,19.40
2017-12-02T00:51:05.333Z,18.73
2017-12-02T00:54:04.880Z,19.77
2017-12-02T00:56:40.532Z,19.80
2017-12-02T00:59:39.776Z,19.27
2017-12-02T01:06:02.429Z,18.87
2017-12-02T01:09:05.672Z,19.80
2017-12-02T01:11:39.757Z,19.60
2017-12-02T01:14:08.850Z,19.60
2017-12-02T01:16:37.965Z,21.57
2017-12-02T01:19:10.166Z,18.93
2017-12-02T01:21:45.829Z,20.83
2017-12-02T01:24:15.090Z,19.90
2017-12-02T01:26:43.385Z,22.40
2017-12-02T01:29:12.522Z,21.50
2017-12-02T01:31:40.829Z,20.50
2017-12-02T01:34:09.153Z,20.70
2017-12-02T01:36:37.416Z,20.00
2017-12-02T01:39:05.701Z,20.47
2017-12-02T01:41:33.984Z,18.50
2017-12-02T01:44:03.026Z,19.80
2017-12-02T01:46:32.077Z,20.97
2017-12-02T01:49:01.152Z,20.80
2017-12-02T01:51:29.419Z,19.20
2017-12-02T01:53:57.815Z,20.57
2017-12-02T01:56:26.276Z,20.50
2017-12-02T01:58:54.580Z,19.43
2017-12-02T02:01:23.655Z,21.13
2017-12-02T02:03:52.094Z,19.33
2017-12-02T02:06:21.132Z,19.13
2017-12-02T02:08:50.214Z,20.10
2017-12-02T02:11:18.553Z,19.13
2017-12-02T02:13:46.927Z,19.33
2017-12-02T02:16:15.974Z,20.20
2017-12-02T02:18:44.354Z,21.00
2017-12-02T02:21:12.634Z,22.23
2017-12-02T02:23:40.906Z,19.73
2017-12-02T02:26:09.997Z,19.87
2017-12-02T02:28:38.312Z,19.23
2017-12-02T02:31:06.721Z,21.70
2017-12-02T02:33:35.051Z,20.90
2017-12-02T02:36:04.283Z,19.70
2017-12-02T02:38:32.624Z,19.23
2017-12-02T02:41:00.964Z,19.97
2017-12-02T02:43:29.264Z,17.40
2017-12-02T02:46:09.418Z,19.03
2017-12-02T02:52:21.536Z,20.10
2017-12-02T03:10:52.954Z,21.77
2017-12-02T03:17:06.981Z,21.40
2017-12-02T03:20:05.794Z,22.13
2017-12-02T03:26:36.813Z,20.93
2017-12-02T03:35:33.490Z,21.97
2017-12-02T03:41:19.676Z,20.70
2017-12-02T03:43:48.726Z,21.27
2017-12-02T03:46:17.829Z,21.53
2017-12-02T03:48:47.132Z,19.77
2017-12-02T03:51:15.453Z,23.00
2017-12-02T03:53:43.777Z,22.20
2017-12-02T03:56:12.871Z,25.10
2017-12-02T03:58:41.237Z,26.50
2017-12-02T04:01:09.606Z,25.80
2017-12-02T04:03:37.897Z,26.20
2017-12-02T04:06:06.982Z,27.67
2017-12-02T04:08:35.283Z,27.63
2017-12-02T04:11:04.476Z,29.13
2017-12-02T04:13:32.800Z,31.10
2017-12-02T04:16:01.849Z,29.97
2017-12-02T04:31:41.255Z,28.60
2017-12-02T04:34:27.021Z,28.73
2017-12-02T04:36:56.731Z,29.17
2017-12-02T04:39:25.884Z,30.73
2017-12-02T04:41:54.422Z,29.10
2017-12-02T04:44:23.554Z,30.97
2017-12-02T04:47:00.636Z,32.67
2017-12-02T04:49:30.579Z,28.30
2017-12-02T04:51:59.808Z,26.80
2017-12-02T04:54:39.472Z,29.73
2017-12-02T04:57:07.869Z,31.60
2017-12-02T04:59:49.663Z,28.57
2017-12-02T05:02:21.881Z,27.57
2017-12-02T05:04:50.208Z,29.83
2017-12-02T05:07:18.485Z,27.93
2017-12-02T05:09:48.862Z,28.50
2017-12-02T05:12:17.190Z,27.80
2017-12-02T05:14:46.269Z,27.30
2017-12-02T05:17:14.644Z,26.63
2017-12-02T05:19:45.889Z,25.57
2017-12-02T05:22:15.003Z,26.00
2017-12-02T05:24:43.347Z,28.87
2017-12-02T05:27:16.215Z,25.67
2017-12-02T05:29:44.564Z,26.30
2017-12-02T05:32:13.812Z,24.37
2017-12-02T05:34:42.125Z,25.40
2017-12-02T05:37:10.465Z,27.63
2017-12-02T05:39:38.821Z,28.90
2017-12-02T05:42:08.365Z,30.60
2017-12-02T05:44:36.716Z,30.00
2017-12-02T05:47:05.528Z,28.87
2017-12-02T05:49:34.654Z,25.60
2017-12-02T05:52:03.043Z,28.20
2017-12-02T05:54:31.350Z,25.67
2017-12-02T05:57:05.098Z,28.80
2017-12-02T05:59:35.480Z,29.10
2017-12-02T06:02:04.536Z,26.53
2017-12-02T06:04:33.730Z,28.17
2017-12-02T06:07:02.045Z,29.67
2017-12-02T06:09:30.397Z,30.67
2017-12-02T06:11:59.483Z,26.30
2017-12-02T06:14:27.826Z,26.00
2017-12-02T06:16:56.142Z,26.40
2017-12-02T06:22:56.705Z,24.13
2017-12-02T06:25:53.856Z,26.70
2017-12-02T06:28:32.187Z,27.70
2017-12-02T06:31:07.884Z,25.20
2017-12-02T06:33:45.118Z,25.03
2017-12-02T06:36:31.071Z,24.83
2017-12-02T06:41:44.986Z,22.50
2017-12-02T06:44:13.349Z,24.20
2017-12-02T06:46:43.213Z,24.83
2017-12-02T06:49:14.215Z,26.13
2017-12-02T06:51:44.184Z,25.07
2017-12-02T06:54:13.257Z,23.47
2017-12-02T06:56:41.648Z,22.87
2017-12-02T06:59:11.995Z,22.50
2017-12-02T07:01:42.100Z,23.27
2017-12-02T07:04:11.841Z,24.10
2017-12-02T07:06:44.122Z,22.00
2017-12-02T07:09:13.389Z,23.20
2017-12-02T07:11:42.007Z,24.70
2017-12-02T07:14:10.634Z,24.67
2017-12-02T07:16:53.625Z,22.47
2017-12-02T07:19:31.561Z,22.27
2017-12-02T07:25:10.142Z,24.13
2017-12-02T07:27:40.355Z,25.77
2017-12-02T07:30:08.763Z,25.43
2017-12-02T07:32:37.241Z,24.83
2017-12-02T07:35:07.302Z,27.00
2017-12-02T07:37:36.539Z,27.60
2017-12-02T09:10:29.114Z,26.70
2017-12-02T10:06:03.340Z,26.30
2017-12-02T13:56:38.040Z,17.90
2017-12-02T13:59:06.493Z,17.10
2017-12-02T17:19:45.949Z,17.23
2017-12-02T17:37:32.843Z,16.33
2017-12-02T17:40:10.365Z,16.27
2017-12-02T17:43:01.239Z,17.87
2017-12-02T17:48:23.452Z,19.50
2017-12-02T17:51:09.040Z,18.43
2017-12-02T17:53:37.691Z,19.53
2017-12-02T17:56:06.384Z,18.60
2017-12-02T17:58:35.665Z,21.23
2017-12-02T18:01:05.363Z,22.13
2017-12-02T18:03:39.991Z,19.23
2017-12-02T18:06:10.669Z,19.47
2017-12-02T18:08:40.066Z,18.53
2017-12-02T18:11:09.498Z,19.10
2017-12-02T18:13:38.765Z,20.07
2017-12-02T18:16:07.225Z,19.07
2017-12-02T18:18:35.574Z,17.40
2017-12-02T18:21:04.097Z,18.60
2017-12-02T18:23:32.638Z,19.40
2017-12-02T18:26:01.104Z,17.70
2017-12-02T18:28:29.738Z,19.80
2017-12-02T18:31:01.013Z,18.50
2017-12-02T18:33:29.469Z,19.60
2017-12-02T18:35:57.956Z,17.50
2017-12-02T22:03:01.509Z,19.30
2017-12-02T22:17:52.266Z,18.83
2017-12-02T22:20:21.499Z,19.63
2017-12-02T22:22:51.458Z,19.27
2017-12-02T22:25:19.792Z,21.03
2017-12-02T22:27:49.043Z,21.10
2017-12-02T22:30:40.426Z,19.33
2017-12-02T22:33:14.503Z,21.30
2017-12-02T23:02:42.398Z,18.97
2017-12-02T23:05:28.216Z,19.63
2017-12-02T23:08:02.826Z,18.23
2017-12-02T23:10:36.270Z,18.10
2017-12-02T23:13:05.341Z,20.60
2017-12-02T23:15:33.621Z,19.20
2017-12-02T23:18:02.244Z,19.80
2017-12-02T23:20:32.280Z,18.20
2017-12-02T23:23:02.013Z,20.07
2017-12-02T23:25:35.844Z,21.07
2017-12-02T23:28:05.684Z,20.40
2017-12-02T23:30:34.015Z,20.40
2017-12-02T23:33:02.438Z,20.80
2017-12-02T23:35:31.794Z,20.10
2017-12-02T23:38:01.067Z,21.67
2017-12-02T23:40:29.424Z,19.20
2017-12-02T23:42:58.170Z,19.87
2017-12-02T23:45:27.066Z,20.93
2017-12-02T23:47:55.330Z,19.43
2017-12-02T23:50:25.617Z,18.73
2017-12-02T23:52:53.929Z,20.77
2017-12-02T23:55:22.697Z,20.43
2017-12-02T23:57:51.081Z,19.30
